createdAt,value
2023-03-04T00:00:50.380Z,1.85
2023-03-04T00:03:16.801Z,2.10
2023-03-04T00:05:43.256Z,1.17
2023-03-04T00:08:09.547Z,1.40
2023-03-04T00:10:35.920Z,1.67
2023-03-04T00:13:02.299Z,1.45
2023-03-04T00:15:28.883Z,1.58
2023-03-04T00:17:55.359Z,2.50
2023-03-04T00:20:21.898Z,1.30
2023-03-04T00:22:48.302Z,1.63
2023-03-04T00:25:15.123Z,1.48
2023-03-04T00:27:41.856Z,1.63
2023-03-04T00:30:09.013Z,1.63
2023-03-04T00:32:35.367Z,1.60
2023-03-04T00:35:01.852Z,1.60
2023-03-04T00:37:28.189Z,1.20
2023-03-04T00:39:54.444Z,1.40
2023-03-04T00:42:20.812Z,1.30
2023-03-04T00:44:47.208Z,1.63
2023-03-04T00:47:13.591Z,1.80
2023-03-04T00:49:39.969Z,1.35
2023-03-04T00:52:06.555Z,1.20
2023-03-04T00:54:32.940Z,1.23
2023-03-04T00:56:59.295Z,1.08
2023-03-04T00:59:26.142Z,1.20
2023-03-04T01:01:52.476Z,1.35
2023-03-04T01:04:18.902Z,1.25
2023-03-04T01:06:45.348Z,1.57
2023-03-04T01:09:11.684Z,1.20
2023-03-04T01:11:38.008Z,1.17
2023-03-04T01:14:04.695Z,1.35
2023-03-04T01:16:31.084Z,1.30
2023-03-04T01:18:57.490Z,0.87
2023-03-04T01:21:23.924Z,1.10
2023-03-04T01:23:50.407Z,1.40
2023-03-04T01:26:16.773Z,1.52
2023-03-04T01:28:43.266Z,1.65
2023-03-04T01:31:09.964Z,1.10
2023-03-04T01:33:36.338Z,1.50
2023-03-04T01:36:02.689Z,1.10
2023-03-04T01:38:29.193Z,1.15
2023-03-04T01:40:58.377Z,1.38
2023-03-04T01:43:28.156Z,1.20
2023-03-04T01:45:56.195Z,1.30
2023-03-04T01:48:27.529Z,1.38
2023-03-04T01:50:54.144Z,1.13
2023-03-04T01:53:23.564Z,1.55
2023-03-04T01:55:51.712Z,0.83
2023-03-04T01:58:18.051Z,1.40
2023-03-04T02:00:44.541Z,1.30
2023-03-04T02:03:17.631Z,0.95
2023-03-04T02:05:46.661Z,1.40
2023-03-04T02:08:15.072Z,1.33
2023-03-04T02:10:43.397Z,0.98
2023-03-04T02:13:10.683Z,1.38
2023-03-04T02:15:37.119Z,1.67
2023-03-04T02:18:13.734Z,1.42
2023-03-04T02:21:06.252Z,1.27
2023-03-04T02:23:44.128Z,1.27
2023-03-04T02:26:22.192Z,1.60
2023-03-04T02:28:51.518Z,1.77
2023-03-04T02:31:37.318Z,1.20
2023-03-04T02:34:12.250Z,1.10
2023-03-04T02:36:39.740Z,1.40
2023-03-04T02:39:21.709Z,1.23
2023-03-04T02:41:49.174Z,1.48
2023-03-04T02:44:21.868Z,1.00
2023-03-04T02:46:49.777Z,1.30
2023-03-04T02:49:17.411Z,1.38
2023-03-04T02:51:43.799Z,1.30
2023-03-04T02:54:21.725Z,1.23
2023-03-04T02:56:50.551Z,1.35
2023-03-04T02:59:17.994Z,1.37
2023-03-04T03:01:44.626Z,1.20
2023-03-04T03:04:11.674Z,1.23
2023-03-04T03:06:39.557Z,0.98
2023-03-04T03:09:06.544Z,1.48
2023-03-04T03:11:33.209Z,1.10
2023-03-04T03:13:59.579Z,1.25
2023-03-04T03:16:25.911Z,1.10
2023-03-04T03:18:52.354Z,1.33
2023-03-04T03:21:19.154Z,1.10
2023-03-04T03:23:45.781Z,1.53
2023-03-04T03:26:12.172Z,1.33
2023-03-04T03:28:38.795Z,1.45
2023-03-04T03:31:05.658Z,1.08
2023-03-04T03:33:32.303Z,1.15
2023-03-04T03:35:58.768Z,1.43
2023-03-04T03:38:25.162Z,1.38
2023-03-04T03:40:51.587Z,1.23
2023-03-04T03:43:19.024Z,1.02
2023-03-04T03:45:45.599Z,1.35
2023-03-04T03:48:12.234Z,1.10
2023-03-04T03:50:39.073Z,1.20
2023-03-04T03:53:05.977Z,1.50
2023-03-04T03:55:32.292Z,0.90
2023-03-04T03:57:58.632Z,1.25
2023-03-04T04:00:25.030Z,1.10
2023-03-04T04:02:53.123Z,1.00
2023-03-04T04:05:19.501Z,1.30
2023-03-04T04:07:45.819Z,1.02
2023-03-04T04:10:12.463Z,1.00
2023-03-04T04:12:39.582Z,1.10
2023-03-04T04:15:06.716Z,1.10
2023-03-04T04:17:33.026Z,0.98
2023-03-04T04:19:59.375Z,1.08
2023-03-04T04:22:25.672Z,1.27
2023-03-04T04:24:52.055Z,1.27
2023-03-04T04:27:18.442Z,1.00
2023-03-04T04:29:44.754Z,1.10
2023-03-04T04:32:11.063Z,1.20
2023-03-04T04:34:37.522Z,1.20
2023-03-04T04:37:03.847Z,1.20
2023-03-04T04:39:30.104Z,1.35
2023-03-04T04:41:56.454Z,1.10
2023-03-04T04:44:22.800Z,1.02
2023-03-04T04:46:49.167Z,1.20
2023-03-04T04:49:15.535Z,0.90
2023-03-04T04:51:41.859Z,1.02
2023-03-04T04:54:08.610Z,1.10
2023-03-04T04:56:34.905Z,0.77
2023-03-04T04:59:04.445Z,1.05
2023-03-04T05:01:31.152Z,0.80
2023-03-04T05:03:57.594Z,1.30
2023-03-04T05:06:24.730Z,1.25
2023-03-04T05:08:51.903Z,1.10
2023-03-04T05:11:19.132Z,1.13
2023-03-04T05:13:46.268Z,1.00
2023-03-04T05:16:12.987Z,1.30
2023-03-04T05:18:39.325Z,1.10
2023-03-04T05:21:06.596Z,1.05
2023-03-04T05:23:35.512Z,1.10
2023-03-04T05:26:03.349Z,0.90
2023-03-04T05:28:29.965Z,1.05
2023-03-04T05:30:56.353Z,0.95
2023-03-04T05:33:22.960Z,1.30
2023-03-04T05:35:49.847Z,1.02
2023-03-04T05:38:18.550Z,1.07
2023-03-04T05:40:46.075Z,1.30
2023-03-04T05:43:12.870Z,1.10
2023-03-04T05:45:39.663Z,1.20
2023-03-04T05:48:06.986Z,0.88
2023-03-04T05:50:34.195Z,1.13
2023-03-04T05:53:00.946Z,1.35
2023-03-04T05:55:27.806Z,0.95
2023-03-04T05:57:54.195Z,1.38
2023-03-04T06:00:20.782Z,0.88
2023-03-04T06:02:47.246Z,1.23
2023-03-04T06:05:14.564Z,1.17
2023-03-04T06:07:41.572Z,1.30
2023-03-04T06:10:08.793Z,0.88
2023-03-04T06:12:35.360Z,1.00
2023-03-04T06:15:01.812Z,1.70
2023-03-04T06:17:28.940Z,1.38
2023-03-04T06:19:55.185Z,1.10
2023-03-04T06:22:21.516Z,1.02
2023-03-04T06:24:47.786Z,1.10
2023-03-04T06:27:14.094Z,1.57
2023-03-04T06:29:40.420Z,1.00
2023-03-04T06:32:06.759Z,1.00
2023-03-04T06:34:33.110Z,1.08
2023-03-04T06:36:59.863Z,0.90
2023-03-04T06:39:26.240Z,1.23
2023-03-04T06:41:52.570Z,1.10
2023-03-04T06:44:18.937Z,1.13
2023-03-04T06:46:45.381Z,1.10
2023-03-04T06:49:11.737Z,1.92
2023-03-04T06:51:38.254Z,1.23
2023-03-04T06:54:04.636Z,0.88
2023-03-04T06:56:31.197Z,1.10
2023-03-04T06:58:57.552Z,1.00
2023-03-04T07:01:26.268Z,0.70
2023-03-04T07:03:53.838Z,0.83
2023-03-04T07:06:22.587Z,0.90
2023-03-04T07:08:49.593Z,1.08
2023-03-04T07:11:16.051Z,0.77
2023-03-04T07:13:42.563Z,0.70
2023-03-04T07:16:12.776Z,0.80
2023-03-04T07:18:39.246Z,0.75
2023-03-04T07:21:06.709Z,0.93
2023-03-04T07:23:33.238Z,0.90
2023-03-04T07:25:59.843Z,0.95
2023-03-04T07:28:26.845Z,0.73
2023-03-04T07:30:53.416Z,0.73
2023-03-04T07:33:19.759Z,1.20
2023-03-04T07:35:46.109Z,1.00
2023-03-04T07:38:12.646Z,1.00
2023-03-04T07:40:39.024Z,0.97
2023-03-04T07:43:05.354Z,1.02
2023-03-04T07:45:32.338Z,0.90
2023-03-04T07:47:58.994Z,1.20
2023-03-04T07:50:25.379Z,1.10
2023-03-04T07:52:52.409Z,1.40
2023-03-04T07:55:18.986Z,1.20
2023-03-04T07:57:47.534Z,0.98
2023-03-04T08:00:16.356Z,0.93
2023-03-04T08:02:42.855Z,0.80
2023-03-04T08:05:12.182Z,0.87
2023-03-04T08:07:38.437Z,0.70
2023-03-04T08:10:05.376Z,0.93
2023-03-04T08:12:32.119Z,0.95
2023-03-04T08:14:58.535Z,0.98
2023-03-04T08:17:24.930Z,0.83
2023-03-04T08:19:51.261Z,0.90
2023-03-04T08:22:17.608Z,0.70
2023-03-04T08:24:43.949Z,0.77
2023-03-04T08:27:10.333Z,0.98
2023-03-04T08:29:36.798Z,0.83
2023-03-04T08:32:03.274Z,1.05
2023-03-04T08:34:29.810Z,0.93
2023-03-04T08:36:56.164Z,0.98
2023-03-04T08:39:22.554Z,0.60
2023-03-04T08:41:49.483Z,0.80
2023-03-04T08:44:16.496Z,1.00
2023-03-04T08:46:43.707Z,1.25
2023-03-04T08:49:13.463Z,0.63
2023-03-04T08:51:39.999Z,1.00
2023-03-04T08:54:06.586Z,0.63
2023-03-04T08:56:32.990Z,0.95
2023-03-04T08:58:59.385Z,0.82
2023-03-04T09:01:25.728Z,0.80
2023-03-04T09:03:52.162Z,0.85
2023-03-04T09:06:19.308Z,1.07
2023-03-04T09:08:46.119Z,0.90
2023-03-04T09:11:13.494Z,0.90
2023-03-04T09:13:40.187Z,1.00
2023-03-04T09:16:14.586Z,0.90
2023-03-04T09:18:41.779Z,0.93
2023-03-04T09:21:08.632Z,0.70
2023-03-04T09:23:36.003Z,0.70
2023-03-04T09:26:12.684Z,1.23
2023-03-04T09:28:38.986Z,1.00
2023-03-04T09:31:12.069Z,0.77
2023-03-04T09:33:38.650Z,1.15
2023-03-04T09:36:05.339Z,0.98
2023-03-04T09:38:31.680Z,0.88
2023-03-04T09:41:04.428Z,0.70
2023-03-04T09:43:31.052Z,0.70
2023-03-04T09:46:02.673Z,0.70
2023-03-04T09:48:32.169Z,1.00
2023-03-04T09:51:10.903Z,1.15
2023-03-04T09:53:42.158Z,0.73
2023-03-04T09:56:11.499Z,1.03
2023-03-04T09:59:03.284Z,1.00
2023-03-04T10:01:47.689Z,1.08
2023-03-04T10:04:22.179Z,0.80
2023-03-04T10:06:49.507Z,1.15
2023-03-04T10:09:25.105Z,1.10
2023-03-04T10:12:05.810Z,1.10
2023-03-04T10:14:48.994Z,0.95
2023-03-04T10:17:30.385Z,0.77
2023-03-04T10:20:09.335Z,0.90
2023-03-04T10:22:43.686Z,0.93
2023-03-04T10:25:20.787Z,0.85
2023-03-04T10:27:54.582Z,0.80
2023-03-04T10:30:45.627Z,1.15
2023-03-04T10:33:17.496Z,1.23
2023-03-04T10:35:48.787Z,1.40
2023-03-04T10:38:16.250Z,1.13
2023-03-04T10:40:44.180Z,1.17
2023-03-04T10:43:20.812Z,0.93
2023-03-04T10:45:48.291Z,1.38
2023-03-04T10:48:19.909Z,0.90
2023-03-04T10:50:46.372Z,1.10
2023-03-04T10:53:37.206Z,1.10
2023-03-04T10:56:03.690Z,1.10
2023-03-04T10:58:30.078Z,1.40
2023-03-04T11:01:03.358Z,1.40
2023-03-04T11:03:35.625Z,1.42
2023-03-04T11:06:20.189Z,1.20
2023-03-04T11:08:57.637Z,0.88
2023-03-04T11:11:28.211Z,1.00
2023-03-04T11:14:01.841Z,1.20
2023-03-04T11:16:31.620Z,1.00
2023-03-04T11:19:03.904Z,1.02
2023-03-04T11:21:33.966Z,1.00
2023-03-04T11:24:03.609Z,0.85
2023-03-04T11:26:51.137Z,0.90
2023-03-04T11:29:46.616Z,1.08
2023-03-04T11:32:24.020Z,1.23
2023-03-04T11:34:59.302Z,0.70
2023-03-04T11:37:31.420Z,0.90
2023-03-04T11:40:09.267Z,1.10
2023-03-04T11:42:44.889Z,0.90
2023-03-04T11:45:27.858Z,1.10
2023-03-04T11:48:16.717Z,0.95
2023-03-04T11:50:43.051Z,1.58
2023-03-04T11:53:28.252Z,1.20
2023-03-04T11:56:06.560Z,1.10
2023-03-04T11:58:59.219Z,0.88
2023-03-04T12:01:39.875Z,1.33
2023-03-04T12:04:30.536Z,0.90
2023-03-04T12:07:07.818Z,1.20
2023-03-04T12:09:59.132Z,1.10
2023-03-04T12:12:45.740Z,1.48
2023-03-04T12:15:20.729Z,1.55
2023-03-04T12:18:13.026Z,1.42
2023-03-04T12:20:47.260Z,1.50
2023-03-04T12:23:24.755Z,1.10
2023-03-04T12:26:19.336Z,1.30
2023-03-04T12:28:53.170Z,1.33
2023-03-04T12:31:45.561Z,1.17
2023-03-04T12:34:33.088Z,1.57
2023-03-04T12:37:26.982Z,1.40
2023-03-04T12:40:19.514Z,1.90
2023-03-04T12:43:21.843Z,1.13
2023-03-04T12:46:23.474Z,1.58
2023-03-04T12:49:27.847Z,1.80
2023-03-04T12:52:19.227Z,1.15
2023-03-04T12:54:50.296Z,1.27
2023-03-04T12:57:23.774Z,1.98
2023-03-04T13:00:14.548Z,1.17
2023-03-04T13:02:56.509Z,1.50
2023-03-04T13:05:22.861Z,1.40
2023-03-04T13:08:04.283Z,2.00
2023-03-04T13:10:30.733Z,2.00
2023-03-04T13:12:59.555Z,1.55
2023-03-04T13:15:25.818Z,1.97
2023-03-04T13:17:56.825Z,1.75
2023-03-04T13:20:24.777Z,1.50
2023-03-04T13:23:02.524Z,1.55
2023-03-04T13:25:39.608Z,1.25
2023-03-04T13:28:09.082Z,1.00
2023-03-04T13:30:35.336Z,1.35
2023-03-04T13:33:24.979Z,1.50
2023-03-04T13:35:54.389Z,1.73
2023-03-04T13:38:29.745Z,0.85
2023-03-04T13:41:05.098Z,0.93
2023-03-04T13:43:52.296Z,1.55
2023-03-04T13:46:18.735Z,1.35
2023-03-04T13:48:51.278Z,0.90
2023-03-04T13:51:29.638Z,1.50
2023-03-04T13:53:59.574Z,1.13
2023-03-04T13:56:46.306Z,1.25
2023-03-04T13:59:37.476Z,1.25
2023-03-04T14:02:13.958Z,1.30
2023-03-04T14:04:42.685Z,1.50
2023-03-04T14:07:31.834Z,1.13
2023-03-04T14:10:02.408Z,1.05
2023-03-04T14:12:32.550Z,1.20
2023-03-04T14:15:20.814Z,0.82
2023-03-04T14:17:51.103Z,0.95
2023-03-04T14:20:30.988Z,1.23
2023-03-04T14:23:00.122Z,1.05
2023-03-04T14:25:30.564Z,0.90
2023-03-04T14:28:14.907Z,1.00
2023-03-04T14:30:44.307Z,1.15
2023-03-04T14:33:30.551Z,0.70
2023-03-04T14:36:00.344Z,1.00
2023-03-04T14:38:32.239Z,0.90
2023-03-04T14:41:08.304Z,0.80
2023-03-04T14:43:49.097Z,0.90
2023-03-04T14:46:17.925Z,0.90
2023-03-04T14:48:49.920Z,1.10
2023-03-04T14:51:38.733Z,1.05
2023-03-04T14:54:05.645Z,1.02
2023-03-04T14:56:35.740Z,1.30
2023-03-04T14:59:02.597Z,0.93
2023-03-04T15:01:36.700Z,1.27
2023-03-04T15:04:07.078Z,1.63
2023-03-04T15:06:36.829Z,1.10
2023-03-04T15:09:18.908Z,0.90
2023-03-04T15:11:49.023Z,0.90
2023-03-04T15:14:44.633Z,1.23
2023-03-04T15:17:38.687Z,0.88
2023-03-04T15:20:08.117Z,1.35
2023-03-04T15:22:54.765Z,0.90
2023-03-04T15:25:22.024Z,0.90
2023-03-04T15:27:50.282Z,0.90
2023-03-04T15:30:20.164Z,1.42
2023-03-04T15:32:47.434Z,1.45
2023-03-04T15:35:15.810Z,1.17
2023-03-04T15:37:43.636Z,1.40
2023-03-04T15:40:32.713Z,1.27
2023-03-04T15:43:01.995Z,0.90
2023-03-04T15:45:31.231Z,0.98
2023-03-04T15:47:58.166Z,1.08
2023-03-04T15:50:28.511Z,1.00
2023-03-04T15:52:59.268Z,1.65
2023-03-04T15:55:25.772Z,1.30
2023-03-04T15:57:56.944Z,1.23
2023-03-04T16:00:23.737Z,1.60
2023-03-04T16:02:50.492Z,1.27
2023-03-04T16:05:16.905Z,1.20
2023-03-04T16:07:48.477Z,1.98
2023-03-04T16:10:21.351Z,1.40
2023-03-04T16:12:47.984Z,0.90
2023-03-04T16:15:21.762Z,1.10
2023-03-04T16:17:48.716Z,1.73
2023-03-04T16:20:18.285Z,1.55
2023-03-04T16:22:46.724Z,1.52
2023-03-04T16:25:14.941Z,1.42
2023-03-04T16:27:41.736Z,1.47
2023-03-04T16:30:14.930Z,2.97
2023-03-04T16:32:41.355Z,3.28
2023-03-04T16:35:08.188Z,2.90
2023-03-04T16:37:34.572Z,1.23
2023-03-04T16:40:01.107Z,1.53
2023-03-04T16:42:27.422Z,1.60
2023-03-04T16:44:55.184Z,1.35
2023-03-04T16:47:21.744Z,1.33
2023-03-04T16:49:49.332Z,1.25
2023-03-04T16:52:25.554Z,1.30
2023-03-04T16:54:52.613Z,1.20
2023-03-04T16:57:19.542Z,1.80
2023-03-04T16:59:45.965Z,1.35
2023-03-04T17:02:19.553Z,1.30
2023-03-04T17:04:50.008Z,1.67
2023-03-04T17:07:16.942Z,1.77
2023-03-04T17:09:43.379Z,2.20
2023-03-04T17:12:12.269Z,1.63
2023-03-04T17:14:39.398Z,2.55
2023-03-04T17:17:07.003Z,2.17
2023-03-04T17:19:33.516Z,1.45
2023-03-04T17:22:01.545Z,1.60
2023-03-04T17:24:28.558Z,1.15
2023-03-04T17:26:54.919Z,1.92
2023-03-04T17:29:21.316Z,1.70
2023-03-04T17:31:47.738Z,1.92
2023-03-04T17:34:14.234Z,1.67
2023-03-04T17:36:40.613Z,1.92
2023-03-04T17:39:07.304Z,1.95
2023-03-04T17:41:36.034Z,2.67
2023-03-04T17:44:02.769Z,2.00
2023-03-04T17:46:29.506Z,1.40
2023-03-04T17:48:57.742Z,1.50
2023-03-04T17:51:32.565Z,2.10
2023-03-04T17:53:59.039Z,1.50
2023-03-04T17:56:25.408Z,1.40
2023-03-04T17:58:51.807Z,1.80
2023-03-04T18:01:20.152Z,1.50
2023-03-04T18:03:46.957Z,2.05
2023-03-04T18:06:13.431Z,1.50
2023-03-04T18:08:39.713Z,1.70
2023-03-04T18:11:06.403Z,1.15
2023-03-04T18:13:32.906Z,1.73
2023-03-04T18:15:59.242Z,1.40
2023-03-04T18:18:25.719Z,1.83
2023-03-04T18:21:00.237Z,4.85
2023-03-04T18:23:28.030Z,2.05
2023-03-04T18:25:54.917Z,2.83
2023-03-04T18:28:21.354Z,2.47
2023-03-04T18:30:50.899Z,2.47
2023-03-04T18:33:17.206Z,2.40
2023-03-04T18:35:43.560Z,1.90
2023-03-04T18:38:09.933Z,2.70
2023-03-04T18:40:39.396Z,2.72
2023-03-04T18:43:06.129Z,2.60
2023-03-04T18:45:32.471Z,2.88
2023-03-04T18:47:59.404Z,2.17
2023-03-04T18:50:26.135Z,1.90
2023-03-04T18:52:52.690Z,1.88
2023-03-04T18:55:20.040Z,2.40
2023-03-04T18:57:50.031Z,1.75
2023-03-04T19:00:19.673Z,2.47
2023-03-04T19:02:51.248Z,1.48
2023-03-04T19:05:28.009Z,2.45
2023-03-04T19:07:54.626Z,1.63
2023-03-04T19:10:21.515Z,3.08
2023-03-04T19:12:47.962Z,2.20
2023-03-04T19:15:15.069Z,2.33
2023-03-04T19:17:41.528Z,1.80
2023-03-04T19:20:09.454Z,2.23
2023-03-04T19:22:36.126Z,1.80
2023-03-04T19:25:02.851Z,1.85
2023-03-04T19:27:29.138Z,2.08
2023-03-04T19:29:55.426Z,1.80
2023-03-04T19:32:21.752Z,1.53
2023-03-04T19:34:48.075Z,1.90
2023-03-04T19:37:15.746Z,2.28
2023-03-04T19:39:42.794Z,1.38
2023-03-04T19:42:10.669Z,1.70
2023-03-04T19:44:37.011Z,1.60
2023-03-04T19:47:03.814Z,1.50
2023-03-04T19:49:34.201Z,1.35
2023-03-04T19:52:01.173Z,1.77
2023-03-04T19:54:28.644Z,1.75
2023-03-04T19:56:55.336Z,1.60
2023-03-04T19:59:21.685Z,1.92
2023-03-04T20:01:48.119Z,1.63
2023-03-04T20:04:17.093Z,1.85
2023-03-04T20:06:45.949Z,2.28
2023-03-04T20:09:13.778Z,2.67
2023-03-04T20:11:54.934Z,2.05
2023-03-04T20:14:24.262Z,2.08
2023-03-04T20:16:50.699Z,1.80
2023-03-04T20:19:17.066Z,2.53
2023-03-04T20:21:43.555Z,1.80
2023-03-04T20:24:09.949Z,2.60
2023-03-04T20:26:36.261Z,1.60
2023-03-04T20:29:02.582Z,2.40
2023-03-04T20:31:30.801Z,1.80
2023-03-04T20:33:58.859Z,1.77
2023-03-04T20:36:27.822Z,2.03
2023-03-04T20:39:02.102Z,1.50
2023-03-04T20:41:30.290Z,1.80
2023-03-04T20:43:56.638Z,1.80
2023-03-04T20:46:29.052Z,1.90
2023-03-04T20:49:08.256Z,1.70
2023-03-04T20:51:35.579Z,2.03
2023-03-04T20:54:01.888Z,1.73
2023-03-04T20:56:28.930Z,1.40
2023-03-04T20:58:56.979Z,1.90
2023-03-04T21:01:24.420Z,2.00
2023-03-04T21:03:50.891Z,1.75
2023-03-04T21:06:17.671Z,1.60
2023-03-04T21:08:44.630Z,2.17
2023-03-04T21:11:12.304Z,1.80
2023-03-04T21:13:38.668Z,1.60
2023-03-04T21:16:05.384Z,1.63
2023-03-04T21:18:31.768Z,2.08
2023-03-04T21:20:58.071Z,1.63
2023-03-04T21:23:24.367Z,2.17
2023-03-04T21:25:50.632Z,1.83
2023-03-04T21:28:16.949Z,1.70
2023-03-04T21:30:43.374Z,1.63
2023-03-04T21:33:17.487Z,2.00
2023-03-04T21:35:43.970Z,1.50
2023-03-04T21:38:10.490Z,1.60
2023-03-04T21:40:36.904Z,1.73
2023-03-04T21:43:03.338Z,1.30
2023-03-04T21:45:29.692Z,1.63
2023-03-04T21:47:56.010Z,1.00
2023-03-04T21:50:22.319Z,1.42
2023-03-04T21:52:48.643Z,1.65
2023-03-04T21:55:15.061Z,1.38
2023-03-04T21:57:41.412Z,1.45
2023-03-04T22:00:08.694Z,1.30
2023-03-04T22:02:35.091Z,1.30
2023-03-04T22:05:01.404Z,1.17
2023-03-04T22:07:27.798Z,1.25
2023-03-04T22:09:54.243Z,1.08
2023-03-04T22:12:20.821Z,1.40
2023-03-04T22:14:47.073Z,1.23
2023-03-04T22:17:14.566Z,1.35
2023-03-04T22:19:41.057Z,1.55
2023-03-04T22:22:07.562Z,1.25
2023-03-04T22:24:33.929Z,1.17
2023-03-04T22:27:00.280Z,1.00
2023-03-04T22:29:26.621Z,1.40
2023-03-04T22:31:53.144Z,1.08
2023-03-04T22:34:19.478Z,1.30
2023-03-04T22:36:47.238Z,1.27
2023-03-04T22:39:16.512Z,1.20
2023-03-04T22:41:42.814Z,1.67
2023-03-04T22:44:09.297Z,1.20
2023-03-04T22:46:37.926Z,1.70
2023-03-04T22:49:07.151Z,1.17
2023-03-04T22:51:33.480Z,1.33
2023-03-04T22:53:59.824Z,1.27
2023-03-04T22:56:26.512Z,0.90
2023-03-04T22:58:52.875Z,1.50
2023-03-04T23:01:20.079Z,1.30
2023-03-04T23:03:48.476Z,1.02
2023-03-04T23:06:21.431Z,1.35
2023-03-04T23:08:49.908Z,1.25
2023-03-04T23:11:19.853Z,1.00
2023-03-04T23:13:47.282Z,1.30
2023-03-04T23:16:14.227Z,0.93
2023-03-04T23:18:43.565Z,1.02
2023-03-04T23:21:12.612Z,1.48
2023-03-04T23:23:40.374Z,1.30
2023-03-04T23:26:14.849Z,1.20
2023-03-04T23:28:41.286Z,1.65
2023-03-04T23:31:07.636Z,1.10
2023-03-04T23:33:33.978Z,1.67
2023-03-04T23:36:00.328Z,0.93
2023-03-04T23:38:26.754Z,1.30
2023-03-04T23:40:53.053Z,1.20
2023-03-04T23:43:19.341Z,1.60
2023-03-04T23:45:45.695Z,1.10
2023-03-04T23:48:11.998Z,1.63
2023-03-04T23:50:38.336Z,1.50
2023-03-04T23:53:04.812Z,1.30
2023-03-04T23:55:31.077Z,1.50
2023-03-04T23:57:57.373Z,1.23
